00 34 699226041 (Spain) or 020 719 329 49 (UK) casaroc96@gmail.com

 

Monday 27th May
Well, in spite of my rain gauge reading “0,0”, it did rain today, enough to have registered. I shall have to inspect the gadget for earwigs etc. On our way back from Valencia city there was evidence of hail on the motorway – deep and white – and local news showed pictures of the white beaches at Moraira… very unseasonal for May!

Saturday May 11th
Today´is Sella´s Paella competition – blue skies, 17ºc and rising, up to 30ºc forecast – but there´s nearly always  a rain shower to dampen down the Paella Day – we´ll see!

Wednesday May 1st – MAY DAY!
77,8 mm of rain in April – proves the wisdom of the Spanish proverb ” en abril, aguas mil”in April, a thousand showers. Still, only 8 possibly 9, days with rain.

 

Today Since last reading / previous 24 hours
Date Time Temp
ºc
Wind
dir.
Wind
kph

Press
ure
mb

Humid
ity
%
Max
Temp
Min
Temp
Wind Rain
mm
              ºc Time ºc Time Dir. Kph Time  
1/6/13 10:45 18,2 SSW 5,8 1013 39 21,7 14:34 13,7 06:15 S 38,9 17:24 0,0
31/5/13 11:37 19,3 N 3,2 1010 34 20,8 19:31 12,1 08:09 S 38,9 17:34 0,0
30/5/13                            
29/5/13 10:33 16,1 WSW 4,7 1008 59 22,1 16:29 14,5 07:12 SSW 28,4 11,23 0,0
28/5/13 08:09 15,9 ESE 16,6 1005 45 16,1 20:03 14,0 01:02 NNW 30,6 07:28 0,0
27/5/13 20:02 16,1 SSW 0,0 1007 72 21,2 18:33 13,4 06:52 SSW 19,1 13:33 0,0
25/5/13 08:43 14,8 SW 0,0 1012 71 19,3 19:46 12,9 03:18 SW 12,2 18:35 0,0
24/5/13 18:29 18,4 SW 17,3 1011 47 21,4 16:34 14,6 08:35 SSW 27,0 08:52 0,0
22/5/13 15:04 20,4 SW 8,6 1011 40 20,6 15:01 11,9 02:24 NNE 21,2 15:00 0,0
21/5/13 10:20 13,3 N 5,0 1010 63 17,2 12:18 11,7 06:15 NNE 16,9 09:53 0,0
20/5/13 08:03 12,5 ESE 0,0 1012 52 18,3 15:17 11,4 05:43 WSW 23,4 15:08 0,0
19/5/13 09:06 12,3 SW 13,0 1013 47 17,2 19:15 10,7 17:49 W 34,2 19:45 0,0
18/5/13 07:48 10,7 SSW 2,5 1002 51 17,7 16:53 10,5 06:04 SSW 25,9 12:01 0,0
17/5/13 07:48 12,5 WSW 1,4 998 50 17,4 13:48 11,6 06:44 WSW 23,8 16:34 0,0
16/5/13 07:50 12,5 SE 0,0 996 74 21,4 13:42 12,3 07:39 WSW 16,6 16:44 7,4
15/5/13 07:46 15,7 NE 4,0 998 69 22,1 19:39 14,9 05:54 WSW 16,6 16:44 0,0
14/5/13 07:55 16,7 WSW  0,0 1011 44 21,3 15:56 15,4 08:13 SW 16,9 12:39 0,0
13/5/13 08:12 15,4 WNW 0,0 1017 71 21,0 17:13 14,4 06:56 WSW 16,2 16:23 0,0
12/5/13 09:02 15,6 SSW 0,0 1016 74 20,3 12:05 14,0 06:53 WSW 16,6 13:51 0,0
11/5/13 07:59 16,1 S 0,0 1014 66 24,0 12:21 15,4 06:54 WSW 24,8 15:37 0,0
10/5/13 08:00 19,3 ENE 0,0 1013 48 26,8 09:14 18,6 06:30 NW 38,5 01:38 0,0
9/5/13 08:42 21,5 NNW 0,0 1012 35 28,8 17:18 20,3 06:47 SSW 14,0 12:34 0,0
8/5/13 08:44 21,7 NNW 0,0 1013 38 25,1 17:07 20,3 06:16 SW 12,6 17:59 0,0
7/5/13 17:05 25,1 WNW 6,8 1014 32 25,6 13:24 16,4 08:38 NW 39,2 08:28 0,0
6/5/13 08:33 16,4 WNW 0,0 1016 56 19,7 19:05 14,5 05:54 SW 21,2 12:40 0,0
5/5/13 08:51 14,7 ESE 2,5 1015 58 19,6 18:57 12,2 08:30 SW 21,2 12:40 0,0
4/5/13 08:29 12,2 ESE 0,0 1014 64 17,0 12:26 11,0 07:09 SSW 15,8 13:11 0,0
3/5/13 09:01 13,9 NNE 0,0 1013 61 19,2 18:45 11,8 07:04 SSW 15,8 13:11 0,0
2/5/13 07:58 11,9 WNW 0,0 1011 64 17,4 15:32 10,6 08:36 W 13,7 14:38 0,0
1/5/13 08:35 10,5 ENE 0,0 1011 68 15,0 12:40 9,1 07:34 SW 24,5 15:10 2,1
30/4/13 09:21 11,1 W 4,0 1007 58 14,9 15:47 9,0 06:59 WSW 20,5 15:02 0,0
29/4/13 14:48 14,7 ESE 5,8 1004 61 14,7 14:43 7,7 00:20 E 17,6 13:46 5,2